LHG446A LPPR-LOWW
Flight info
| Callsign | LHG446A |
|---|---|
| Flight time | 3h 6m |
| Altitude | 38000 |
| Route | BELDU9L BELDU DCT ADORO DCT FITSE DCT DGO DCT LPA DCT GOSVI T429 TOPTU DCT TOU DCT GAI/N0400F300 DCT MEN DCT NINUN/N0435F380 DCT LATAM DCT ETREK DCT LTP DCT SOPLO DCT OMASI DCT KINNI DCT SOSAL DCT KORED DCT BERSU DCT DITON DCT DEGES DCT GAMSA/N0439F390 DCT BIRGI/N0431F350 DCT NEMAL NEMAL2W |
| Aircraft | A20N/M-V/N |
Departure
| Time | 2026-05-01 10:55 |
|---|---|
| Airport | Francisco de Sá Carneiro Airport (LPPR) |
Arrival
| Time | 2026-05-01 14:01 |
|---|---|
| Airport | Vienna International Airport (LOWW) |
| Time | Latitude | Longitude | Altitude | Speed | Heading |
|---|---|---|---|---|---|
| 2026-05-01 10:01 | 41.23969 | -8.67275 | 234 ft | 0 kts | 108° |
| 2026-05-01 10:45 | 41.23974 | -8.67293 | 238 ft | 4 kts | 111° |
| 2026-05-01 10:45 | 41.23985 | -8.67326 | 236 ft | 4 kts | 118° |
| 2026-05-01 10:45 | 41.23999 | -8.67356 | 233 ft | 4 kts | 125° |
| 2026-05-01 10:45 | 41.24015 | -8.67384 | 231 ft | 4 kts | 134° |
| 2026-05-01 10:46 | 41.24036 | -8.67408 | 228 ft | 4 kts | 148° |
| 2026-05-01 10:46 | 41.24055 | -8.67421 | 228 ft | 0 kts | 163° |
| 2026-05-01 10:49 | 41.24054 | -8.67420 | 228 ft | 1 kts | 161° |
| 2026-05-01 10:49 | 41.24036 | -8.67416 | 227 ft | 5 kts | 171° |
| 2026-05-01 10:49 | 41.23981 | -8.67427 | 228 ft | 11 kts | 205° |
| 2026-05-01 10:50 | 41.23894 | -8.67488 | 228 ft | 17 kts | 183° |
| 2026-05-01 10:50 | 41.23773 | -8.67462 | 228 ft | 18 kts | 168° |
| 2026-05-01 10:50 | 41.23649 | -8.67429 | 230 ft | 18 kts | 168° |
| 2026-05-01 10:50 | 41.23541 | -8.67401 | 233 ft | 16 kts | 170° |
| 2026-05-01 10:51 | 41.23439 | -8.67377 | 235 ft | 16 kts | 170° |
| 2026-05-01 10:51 | 41.23354 | -8.67388 | 233 ft | 12 kts | 214° |
| 2026-05-01 10:51 | 41.23326 | -8.67474 | 235 ft | 8 kts | 258° |
| 2026-05-01 10:51 | 41.23320 | -8.67509 | 235 ft | 0 kts | 258° |
| 2026-05-01 10:53 | 41.23320 | -8.67510 | 235 ft | 1 kts | 258° |
| 2026-05-01 10:53 | 41.23316 | -8.67539 | 239 ft | 6 kts | 258° |
| 2026-05-01 10:53 | 41.23302 | -8.67621 | 239 ft | 11 kts | 258° |
| 2026-05-01 10:54 | 41.23297 | -8.67718 | 240 ft | 10 kts | 297° |
| 2026-05-01 10:54 | 41.23339 | -8.67742 | 240 ft | 0 kts | 351° |
| 2026-05-01 10:54 | 41.23377 | -8.67751 | 238 ft | 31 kts | 351° |
| 2026-05-01 10:55 | 41.23880 | -8.67884 | 218 ft | 113 kts | 348° |
| 2026-05-01 10:55 | 41.24866 | -8.68139 | 216 ft | 172 kts | 348° |
| 2026-05-01 10:55 | 41.26034 | -8.68500 | 1035 ft | 170 kts | 336° |
| 2026-05-01 10:55 | 41.26906 | -8.69490 | 1893 ft | 167 kts | 291° |
| 2026-05-01 10:56 | 41.27052 | -8.71023 | 2493 ft | 175 kts | 248° |
| 2026-05-01 10:56 | 41.26353 | -8.72330 | 3043 ft | 183 kts | 210° |
| 2026-05-01 10:56 | 41.25095 | -8.72734 | 3504 ft | 199 kts | 173° |
| 2026-05-01 10:56 | 41.23780 | -8.71952 | 3891 ft | 223 kts | 139° |
| 2026-05-01 10:57 | 41.22723 | -8.70344 | 4481 ft | 236 kts | 128° |
| 2026-05-01 10:57 | 41.21685 | -8.68617 | 5046 ft | 252 kts | 136° |
| 2026-05-01 10:57 | 41.20244 | -8.67216 | 5672 ft | 261 kts | 154° |
| 2026-05-01 10:57 | 41.18555 | -8.66317 | 6547 ft | 264 kts | 164° |
| 2026-05-01 10:58 | 41.16764 | -8.65714 | 7395 ft | 266 kts | 169° |
| 2026-05-01 10:58 | 41.14932 | -8.65252 | 8239 ft | 270 kts | 171° |
| 2026-05-01 10:58 | 41.13072 | -8.64835 | 9075 ft | 273 kts | 172° |
| 2026-05-01 10:58 | 41.11226 | -8.64171 | 9818 ft | 281 kts | 156° |
| 2026-05-01 10:59 | 41.09650 | -8.62614 | 10095 ft | 288 kts | 132° |
| 2026-05-01 10:59 | 41.08709 | -8.60260 | 10175 ft | 295 kts | 106° |
| 2026-05-01 10:59 | 41.08612 | -8.57540 | 10184 ft | 300 kts | 82° |
| 2026-05-01 10:59 | 41.09066 | -8.54742 | 10185 ft | 326 kts | 78° |
| 2026-05-01 11:00 | 41.09648 | -8.51719 | 10186 ft | 346 kts | 75° |
| 2026-05-01 11:00 | 41.10172 | -8.49689 | 10179 ft | 344 kts | 70° |
| 2026-05-01 11:00 | 41.11449 | -8.45956 | 10177 ft | 326 kts | 66° |
| 2026-05-01 11:00 | 41.12087 | -8.44183 | 10174 ft | 316 kts | 66° |
| 2026-05-01 11:01 | 41.13014 | -8.41618 | 10175 ft | 300 kts | 66° |
| 2026-05-01 11:01 | 41.13917 | -8.39117 | 10181 ft | 309 kts | 66° |
| 2026-05-01 11:01 | 41.14891 | -8.36405 | 10181 ft | 340 kts | 66° |
| 2026-05-01 11:01 | 41.15925 | -8.33525 | 10173 ft | 347 kts | 65° |
| 2026-05-01 11:02 | 41.16956 | -8.30662 | 10169 ft | 338 kts | 66° |
| 2026-05-01 11:02 | 41.17950 | -8.27905 | 10170 ft | 323 kts | 66° |
| 2026-05-01 11:02 | 41.18894 | -8.25287 | 10168 ft | 306 kts | 66° |
| 2026-05-01 11:02 | 41.19793 | -8.22789 | 10168 ft | 298 kts | 66° |
| 2026-05-01 11:03 | 41.20716 | -8.20217 | 10273 ft | 320 kts | 66° |
| 2026-05-01 11:03 | 41.21707 | -8.17443 | 10532 ft | 343 kts | 66° |
| 2026-05-01 11:03 | 41.22741 | -8.14547 | 11103 ft | 351 kts | 65° |
| 2026-05-01 11:03 | 41.23794 | -8.11600 | 11865 ft | 355 kts | 65° |
| 2026-05-01 11:04 | 41.24858 | -8.08622 | 12588 ft | 359 kts | 65° |
| 2026-05-01 11:04 | 41.25935 | -8.05602 | 13321 ft | 363 kts | 65° |
| 2026-05-01 11:04 | 41.27024 | -8.02545 | 14047 ft | 368 kts | 65° |
| 2026-05-01 11:04 | 41.28113 | -7.99490 | 14677 ft | 372 kts | 65° |
| 2026-05-01 11:05 | 41.29223 | -7.96371 | 15326 ft | 375 kts | 65° |
| 2026-05-01 11:05 | 41.30346 | -7.93217 | 15958 ft | 379 kts | 65° |
| 2026-05-01 11:05 | 41.31478 | -7.90031 | 16563 ft | 383 kts | 65° |
| 2026-05-01 11:05 | 41.32620 | -7.86816 | 17182 ft | 387 kts | 65° |
| 2026-05-01 11:06 | 41.33773 | -7.83566 | 17792 ft | 390 kts | 65° |
| 2026-05-01 11:06 | 41.34918 | -7.80268 | 18396 ft | 394 kts | 68° |
| 2026-05-01 11:06 | 41.35832 | -7.76822 | 18917 ft | 397 kts | 76° |
| 2026-05-01 11:07 | 41.36694 | -7.69543 | 19984 ft | 401 kts | 85° |
| 2026-05-01 11:07 | 41.36980 | -7.65836 | 20531 ft | 404 kts | 85° |
| 2026-05-01 11:07 | 41.37275 | -7.62099 | 21072 ft | 407 kts | 85° |
| 2026-05-01 11:07 | 41.37584 | -7.58332 | 21585 ft | 411 kts | 85° |
| 2026-05-01 11:08 | 41.37906 | -7.54544 | 22113 ft | 414 kts | 85° |
| 2026-05-01 11:08 | 41.38238 | -7.50720 | 22628 ft | 417 kts | 85° |
| 2026-05-01 11:08 | 41.38914 | -7.42985 | 23638 ft | 424 kts | 85° |
| 2026-05-01 11:09 | 41.39256 | -7.39068 | 24054 ft | 427 kts | 85° |
| 2026-05-01 11:09 | 41.39599 | -7.35123 | 24470 ft | 430 kts | 85° |
| 2026-05-01 11:09 | 41.39942 | -7.31152 | 24876 ft | 433 kts | 85° |
| 2026-05-01 11:10 | 41.40630 | -7.23118 | 25644 ft | 440 kts | 85° |
| 2026-05-01 11:10 | 41.40975 | -7.19061 | 26032 ft | 442 kts | 85° |
| 2026-05-01 11:10 | 41.41321 | -7.14975 | 26392 ft | 446 kts | 85° |
| 2026-05-01 11:10 | 41.41667 | -7.10865 | 26777 ft | 448 kts | 85° |
| 2026-05-01 11:11 | 41.42014 | -7.06717 | 27111 ft | 452 kts | 85° |
| 2026-05-01 11:11 | 41.42358 | -7.02600 | 27465 ft | 454 kts | 85° |
| 2026-05-01 11:11 | 41.42706 | -6.98403 | 27806 ft | 457 kts | 85° |
| 2026-05-01 11:11 | 41.43054 | -6.94180 | 28122 ft | 460 kts | 85° |
| 2026-05-01 11:12 | 41.43401 | -6.89952 | 28437 ft | 463 kts | 85° |
| 2026-05-01 11:12 | 41.43752 | -6.85669 | 28757 ft | 465 kts | 85° |
| 2026-05-01 11:12 | 41.44102 | -6.81367 | 29037 ft | 469 kts | 85° |
| 2026-05-01 11:12 | 41.44453 | -6.77036 | 29336 ft | 471 kts | 85° |
| 2026-05-01 11:13 | 41.44806 | -6.72675 | 29626 ft | 473 kts | 85° |
| 2026-05-01 11:13 | 41.45157 | -6.68301 | 29915 ft | 476 kts | 85° |
| 2026-05-01 11:13 | 41.45509 | -6.63900 | 30187 ft | 479 kts | 85° |
| 2026-05-01 11:13 | 41.45861 | -6.59483 | 30444 ft | 481 kts | 85° |
| 2026-05-01 11:14 | 41.46213 | -6.55034 | 30692 ft | 483 kts | 85° |
| 2026-05-01 11:14 | 41.46565 | -6.50576 | 30944 ft | 485 kts | 85° |
| 2026-05-01 11:14 | 41.46916 | -6.46098 | 31185 ft | 488 kts | 85° |
| 2026-05-01 11:14 | 41.47263 | -6.41650 | 31486 ft | 488 kts | 85° |
| 2026-05-01 11:15 | 41.47618 | -6.37092 | 31814 ft | 488 kts | 85° |
| 2026-05-01 11:15 | 41.47963 | -6.32648 | 32128 ft | 488 kts | 85° |
| 2026-05-01 11:15 | 41.48514 | -6.28181 | 32445 ft | 489 kts | 77° |
| 2026-05-01 11:16 | 41.52096 | -6.15320 | 33361 ft | 489 kts | 67° |
| 2026-05-01 11:16 | 41.53416 | -6.11129 | 33637 ft | 489 kts | 68° |
| 2026-05-01 11:16 | 41.54715 | -6.06949 | 33944 ft | 488 kts | 68° |
| 2026-05-01 11:17 | 41.56001 | -6.02751 | 34223 ft | 488 kts | 68° |
| 2026-05-01 11:17 | 41.57273 | -5.98554 | 34458 ft | 487 kts | 68° |
| 2026-05-01 11:17 | 41.58537 | -5.94355 | 34700 ft | 487 kts | 69° |
| 2026-05-01 11:17 | 41.59793 | -5.90165 | 34939 ft | 486 kts | 69° |
| 2026-05-01 11:18 | 41.61046 | -5.85975 | 35170 ft | 485 kts | 69° |
| 2026-05-01 11:18 | 41.62298 | -5.81781 | 35386 ft | 485 kts | 69° |
| 2026-05-01 11:18 | 41.63549 | -5.77589 | 35603 ft | 485 kts | 69° |
| 2026-05-01 11:18 | 41.64795 | -5.73407 | 35807 ft | 484 kts | 69° |
| 2026-05-01 11:19 | 41.66038 | -5.69232 | 36023 ft | 484 kts | 69° |
| 2026-05-01 11:19 | 41.67281 | -5.65052 | 36213 ft | 483 kts | 69° |
| 2026-05-01 11:19 | 41.68521 | -5.60875 | 36398 ft | 483 kts | 69° |
| 2026-05-01 11:19 | 41.69756 | -5.56708 | 36581 ft | 482 kts | 69° |
| 2026-05-01 11:20 | 41.70992 | -5.52532 | 36765 ft | 482 kts | 69° |
| 2026-05-01 11:20 | 41.72209 | -5.48411 | 36920 ft | 482 kts | 69° |
| 2026-05-01 11:20 | 41.73437 | -5.44242 | 37087 ft | 481 kts | 69° |
| 2026-05-01 11:20 | 41.74666 | -5.40074 | 37234 ft | 481 kts | 68° |
| 2026-05-01 11:21 | 41.75893 | -5.35907 | 37404 ft | 481 kts | 68° |
| 2026-05-01 11:21 | 41.77118 | -5.31742 | 37555 ft | 480 kts | 68° |
| 2026-05-01 11:21 | 41.78341 | -5.27579 | 37686 ft | 480 kts | 68° |
| 2026-05-01 11:21 | 41.79560 | -5.23417 | 37831 ft | 480 kts | 68° |
| 2026-05-01 11:22 | 41.80781 | -5.19245 | 37968 ft | 480 kts | 68° |
| 2026-05-01 11:22 | 41.81999 | -5.15074 | 38094 ft | 480 kts | 68° |
| 2026-05-01 11:22 | 41.84427 | -5.06737 | 38176 ft | 479 kts | 68° |
| 2026-05-01 11:23 | 41.86842 | -4.98423 | 38176 ft | 479 kts | 69° |
| 2026-05-01 11:23 | 41.89254 | -4.90091 | 38175 ft | 479 kts | 69° |
| 2026-05-01 11:24 | 41.91643 | -4.81813 | 38177 ft | 478 kts | 69° |
| 2026-05-01 11:25 | 41.95240 | -4.69297 | 38172 ft | 479 kts | 69° |
| 2026-05-01 11:25 | 41.98827 | -4.56754 | 38167 ft | 479 kts | 69° |
| 2026-05-01 11:26 | 42.02403 | -4.44187 | 38166 ft | 479 kts | 69° |
| 2026-05-01 11:27 | 42.04778 | -4.35804 | 38165 ft | 479 kts | 69° |
| 2026-05-01 11:27 | 42.07145 | -4.27422 | 38161 ft | 480 kts | 69° |
| 2026-05-01 11:28 | 42.09510 | -4.19020 | 38157 ft | 479 kts | 69° |
| 2026-05-01 11:28 | 42.11849 | -4.10682 | 38157 ft | 479 kts | 69° |
| 2026-05-01 11:29 | 42.15373 | -3.98068 | 38147 ft | 479 kts | 69° |
| 2026-05-01 11:30 | 42.18877 | -3.85462 | 38162 ft | 478 kts | 69° |
| 2026-05-01 11:30 | 42.21199 | -3.77085 | 38163 ft | 469 kts | 69° |
| 2026-05-01 11:31 | 42.23441 | -3.68976 | 38175 ft | 463 kts | 69° |
| 2026-05-01 11:31 | 42.25690 | -3.60792 | 38181 ft | 465 kts | 69° |
| 2026-05-01 11:32 | 42.27932 | -3.52602 | 38180 ft | 464 kts | 69° |
| 2026-05-01 11:32 | 42.30164 | -3.44426 | 38173 ft | 464 kts | 69° |
| 2026-05-01 11:33 | 42.32386 | -3.36258 | 38169 ft | 463 kts | 69° |
| 2026-05-01 11:33 | 42.34602 | -3.28092 | 38155 ft | 462 kts | 69° |
| 2026-05-01 11:34 | 42.36807 | -3.19939 | 38147 ft | 461 kts | 69° |
| 2026-05-01 11:34 | 42.39006 | -3.11782 | 38136 ft | 461 kts | 69° |
| 2026-05-01 11:35 | 42.41198 | -3.03626 | 38134 ft | 461 kts | 69° |
| 2026-05-01 11:35 | 42.43379 | -2.95476 | 38134 ft | 460 kts | 70° |
| 2026-05-01 11:36 | 42.45014 | -2.87144 | 38131 ft | 461 kts | 80° |
| 2026-05-01 11:36 | 42.45576 | -2.78511 | 38137 ft | 461 kts | 90° |
| 2026-05-01 11:37 | 42.45626 | -2.69836 | 38147 ft | 461 kts | 90° |
| 2026-05-01 11:37 | 42.45713 | -2.61159 | 38151 ft | 461 kts | 89° |
| 2026-05-01 11:38 | 42.45826 | -2.52480 | 38162 ft | 461 kts | 89° |
| 2026-05-01 11:38 | 42.45938 | -2.43792 | 38173 ft | 461 kts | 89° |
| 2026-05-01 11:39 | 42.46073 | -2.35108 | 38174 ft | 462 kts | 86° |
| 2026-05-01 11:39 | 42.46982 | -2.26507 | 38174 ft | 462 kts | 77° |
| 2026-05-01 11:40 | 42.48431 | -2.18083 | 38178 ft | 463 kts | 77° |
| 2026-05-01 11:40 | 42.49885 | -2.09582 | 38182 ft | 463 kts | 77° |
| 2026-05-01 11:41 | 42.51303 | -2.01069 | 38178 ft | 463 kts | 77° |
| 2026-05-01 11:41 | 42.52702 | -1.92556 | 38176 ft | 462 kts | 77° |
| 2026-05-01 11:42 | 42.54093 | -1.84050 | 38176 ft | 462 kts | 78° |
| 2026-05-01 11:42 | 42.55477 | -1.75542 | 38177 ft | 462 kts | 78° |
| 2026-05-01 11:43 | 42.56854 | -1.67040 | 38180 ft | 462 kts | 78° |
| 2026-05-01 11:43 | 42.58224 | -1.58535 | 38183 ft | 461 kts | 78° |
| 2026-05-01 11:44 | 42.60268 | -1.45761 | 38181 ft | 462 kts | 78° |
| 2026-05-01 11:44 | 42.61395 | -1.38686 | 38181 ft | 462 kts | 78° |
| 2026-05-01 11:45 | 42.62746 | -1.30156 | 38183 ft | 462 kts | 78° |
| 2026-05-01 11:45 | 42.64311 | -1.20225 | 38183 ft | 462 kts | 78° |
| 2026-05-01 11:46 | 42.65431 | -1.13077 | 38182 ft | 462 kts | 79° |
| 2026-05-01 11:46 | 42.66764 | -1.04538 | 38178 ft | 462 kts | 79° |
| 2026-05-01 11:47 | 42.68084 | -0.96037 | 38179 ft | 462 kts | 79° |
| 2026-05-01 11:47 | 42.69404 | -0.87483 | 38181 ft | 462 kts | 79° |
| 2026-05-01 11:48 | 42.70717 | -0.78939 | 38184 ft | 462 kts | 79° |
| 2026-05-01 11:48 | 42.72022 | -0.70395 | 38186 ft | 462 kts | 79° |
| 2026-05-01 11:49 | 42.73322 | -0.61841 | 38184 ft | 462 kts | 79° |
| 2026-05-01 11:49 | 42.74608 | -0.53338 | 38194 ft | 462 kts | 79° |
| 2026-05-01 11:50 | 42.75897 | -0.44769 | 38202 ft | 461 kts | 79° |
| 2026-05-01 11:50 | 42.77176 | -0.36213 | 38209 ft | 461 kts | 79° |
| 2026-05-01 11:51 | 42.78452 | -0.27632 | 38210 ft | 463 kts | 79° |
| 2026-05-01 11:51 | 42.79251 | -0.23372 | 37800 ft | 466 kts | 72° |
| 2026-05-01 11:51 | 42.80451 | -0.19270 | 37349 ft | 465 kts | 64° |
| 2026-05-01 11:52 | 42.82042 | -0.15454 | 37053 ft | 462 kts | 56° |
| 2026-05-01 11:52 | 42.83970 | -0.11970 | 37065 ft | 461 kts | 49° |
| 2026-05-01 11:52 | 42.86046 | -0.08623 | 37195 ft | 462 kts | 49° |
| 2026-05-01 11:52 | 42.88122 | -0.05278 | 37331 ft | 463 kts | 49° |
| 2026-05-01 11:53 | 42.90188 | -0.01910 | 37464 ft | 463 kts | 50° |
| 2026-05-01 11:53 | 42.92243 | 0.01478 | 37591 ft | 464 kts | 50° |
| 2026-05-01 11:53 | 42.94264 | 0.04842 | 37726 ft | 463 kts | 50° |
| 2026-05-01 11:53 | 42.96323 | 0.08286 | 37855 ft | 462 kts | 50° |
| 2026-05-01 11:54 | 42.98347 | 0.11681 | 37976 ft | 462 kts | 51° |
| 2026-05-01 11:54 | 43.00350 | 0.15048 | 38109 ft | 462 kts | 51° |
| 2026-05-01 11:54 | 43.02374 | 0.18453 | 38210 ft | 462 kts | 51° |
| 2026-05-01 11:54 | 43.04398 | 0.21859 | 38209 ft | 462 kts | 51° |
| 2026-05-01 11:55 | 43.08442 | 0.28672 | 38207 ft | 461 kts | 51° |
| 2026-05-01 11:55 | 43.12480 | 0.35487 | 38171 ft | 461 kts | 51° |
| 2026-05-01 11:56 | 43.16520 | 0.42317 | 38164 ft | 461 kts | 51° |
| 2026-05-01 11:56 | 43.20558 | 0.49160 | 38165 ft | 461 kts | 51° |
| 2026-05-01 11:57 | 43.24584 | 0.55998 | 38165 ft | 461 kts | 51° |
| 2026-05-01 11:57 | 43.28614 | 0.62858 | 38160 ft | 461 kts | 51° |
| 2026-05-01 11:58 | 43.32603 | 0.69663 | 38161 ft | 460 kts | 51° |
| 2026-05-01 11:59 | 43.38612 | 0.79945 | 38159 ft | 460 kts | 51° |
| 2026-05-01 11:59 | 43.42620 | 0.86823 | 38160 ft | 460 kts | 52° |
| 2026-05-01 12:00 | 43.48616 | 0.97142 | 38170 ft | 461 kts | 52° |
| 2026-05-01 12:01 | 43.54608 | 1.07490 | 38174 ft | 461 kts | 52° |
| 2026-05-01 12:01 | 43.58607 | 1.14416 | 38175 ft | 461 kts | 52° |
| 2026-05-01 12:02 | 43.62598 | 1.21345 | 38173 ft | 460 kts | 52° |
| 2026-05-01 12:02 | 43.66585 | 1.28282 | 38177 ft | 462 kts | 52° |
| 2026-05-01 12:03 | 43.70509 | 1.35241 | 38175 ft | 461 kts | 54° |
| 2026-05-01 12:03 | 43.74304 | 1.42385 | 38175 ft | 460 kts | 55° |
| 2026-05-01 12:04 | 43.78084 | 1.49542 | 38184 ft | 459 kts | 55° |
| 2026-05-01 12:04 | 43.81862 | 1.56670 | 38189 ft | 459 kts | 55° |
| 2026-05-01 12:05 | 43.85647 | 1.63806 | 38195 ft | 459 kts | 55° |
| 2026-05-01 12:05 | 43.91279 | 1.74456 | 38200 ft | 459 kts | 55° |
| 2026-05-01 12:06 | 43.95048 | 1.81606 | 38204 ft | 458 kts | 55° |
| 2026-05-01 12:06 | 43.98742 | 1.88822 | 38208 ft | 459 kts | 57° |
| 2026-05-01 12:07 | 44.02365 | 1.96147 | 38213 ft | 459 kts | 57° |
| 2026-05-01 12:07 | 44.05973 | 2.03443 | 38210 ft | 458 kts | 57° |
| 2026-05-01 12:08 | 44.09591 | 2.10751 | 38214 ft | 459 kts | 57° |
| 2026-05-01 12:08 | 44.13206 | 2.18075 | 38222 ft | 459 kts | 57° |
| 2026-05-01 12:09 | 44.16815 | 2.25410 | 38223 ft | 459 kts | 57° |
| 2026-05-01 12:09 | 44.20426 | 2.32767 | 38228 ft | 461 kts | 57° |
| 2026-05-01 12:10 | 44.25873 | 2.43890 | 38234 ft | 462 kts | 57° |
| 2026-05-01 12:11 | 44.31291 | 2.54988 | 38231 ft | 462 kts | 57° |
| 2026-05-01 12:11 | 44.34894 | 2.62392 | 38229 ft | 464 kts | 57° |
| 2026-05-01 12:12 | 44.38519 | 2.69859 | 38234 ft | 464 kts | 57° |
| 2026-05-01 12:12 | 44.42125 | 2.77305 | 38239 ft | 461 kts | 57° |
| 2026-05-01 12:13 | 44.45715 | 2.84735 | 38244 ft | 462 kts | 57° |
| 2026-05-01 12:13 | 44.49326 | 2.92225 | 38242 ft | 464 kts | 57° |
| 2026-05-01 12:14 | 44.52930 | 2.99717 | 38244 ft | 463 kts | 57° |
| 2026-05-01 12:14 | 44.56524 | 3.07209 | 38241 ft | 461 kts | 57° |
| 2026-05-01 12:15 | 44.60098 | 3.14684 | 38242 ft | 461 kts | 57° |
| 2026-05-01 12:15 | 44.63328 | 3.22459 | 38246 ft | 461 kts | 62° |
| 2026-05-01 12:16 | 44.66423 | 3.30297 | 38240 ft | 461 kts | 62° |
| 2026-05-01 12:16 | 44.69580 | 3.38206 | 38244 ft | 461 kts | 61° |
| 2026-05-01 12:17 | 44.72703 | 3.46005 | 38241 ft | 461 kts | 61° |
| 2026-05-01 12:17 | 44.75842 | 3.53859 | 38242 ft | 460 kts | 61° |
| 2026-05-01 12:18 | 44.78970 | 3.61715 | 38245 ft | 460 kts | 60° |
| 2026-05-01 12:18 | 44.82088 | 3.69571 | 38247 ft | 459 kts | 60° |
| 2026-05-01 12:19 | 44.85191 | 3.77419 | 38256 ft | 459 kts | 60° |
| 2026-05-01 12:19 | 44.88295 | 3.85293 | 38258 ft | 459 kts | 60° |
| 2026-05-01 12:20 | 44.91390 | 3.93167 | 38256 ft | 459 kts | 60° |
| 2026-05-01 12:20 | 44.94482 | 4.01060 | 38261 ft | 459 kts | 60° |
| 2026-05-01 12:21 | 44.97568 | 4.08962 | 38254 ft | 459 kts | 60° |
| 2026-05-01 12:21 | 45.00649 | 4.16875 | 38249 ft | 460 kts | 60° |
| 2026-05-01 12:22 | 45.03706 | 4.24749 | 38247 ft | 460 kts | 60° |
| 2026-05-01 12:22 | 45.06780 | 4.32686 | 38244 ft | 460 kts | 60° |
| 2026-05-01 12:23 | 45.09848 | 4.40633 | 38241 ft | 460 kts | 60° |
| 2026-05-01 12:23 | 45.12912 | 4.48594 | 38243 ft | 460 kts | 60° |
| 2026-05-01 12:24 | 45.15970 | 4.56563 | 38239 ft | 460 kts | 60° |
| 2026-05-01 12:24 | 45.19020 | 4.64536 | 38245 ft | 460 kts | 60° |
| 2026-05-01 12:25 | 45.23585 | 4.76507 | 38239 ft | 460 kts | 60° |
| 2026-05-01 12:26 | 45.26627 | 4.84511 | 38244 ft | 461 kts | 61° |
| 2026-05-01 12:26 | 45.31159 | 4.96487 | 38249 ft | 460 kts | 61° |
| 2026-05-01 12:27 | 45.35695 | 5.08528 | 38254 ft | 460 kts | 61° |
| 2026-05-01 12:28 | 45.40216 | 5.20582 | 38259 ft | 460 kts | 61° |
| 2026-05-01 12:29 | 45.44717 | 5.32633 | 38259 ft | 459 kts | 61° |
| 2026-05-01 12:29 | 45.49680 | 5.44239 | 38265 ft | 456 kts | 49° |
| 2026-05-01 12:30 | 45.56430 | 5.53670 | 38261 ft | 452 kts | 39° |
| 2026-05-01 12:31 | 45.61166 | 5.59594 | 38257 ft | 452 kts | 39° |
| 2026-05-01 12:31 | 45.65835 | 5.65532 | 38259 ft | 452 kts | 39° |
| 2026-05-01 12:32 | 45.70486 | 5.71500 | 38263 ft | 452 kts | 40° |
| 2026-05-01 12:32 | 45.76709 | 5.79504 | 38268 ft | 451 kts | 40° |
| 2026-05-01 12:33 | 45.81389 | 5.85517 | 38272 ft | 451 kts | 40° |
| 2026-05-01 12:33 | 45.86059 | 5.91533 | 38270 ft | 451 kts | 40° |
| 2026-05-01 12:34 | 45.90716 | 5.97547 | 38279 ft | 451 kts | 40° |
| 2026-05-01 12:34 | 45.95381 | 6.03585 | 38269 ft | 450 kts | 40° |
| 2026-05-01 12:35 | 46.00036 | 6.09625 | 38275 ft | 451 kts | 40° |
| 2026-05-01 12:35 | 46.04684 | 6.15672 | 38272 ft | 450 kts | 40° |
| 2026-05-01 12:36 | 46.09328 | 6.21728 | 38295 ft | 450 kts | 41° |
| 2026-05-01 12:36 | 46.13854 | 6.27994 | 38302 ft | 451 kts | 44° |
| 2026-05-01 12:37 | 46.18260 | 6.34331 | 38308 ft | 450 kts | 44° |
| 2026-05-01 12:37 | 46.22693 | 6.40695 | 38301 ft | 449 kts | 44° |
| 2026-05-01 12:38 | 46.27133 | 6.47048 | 38299 ft | 449 kts | 44° |
| 2026-05-01 12:38 | 46.31569 | 6.53398 | 38300 ft | 448 kts | 44° |
| 2026-05-01 12:39 | 46.36000 | 6.59756 | 38303 ft | 448 kts | 44° |
| 2026-05-01 12:39 | 46.40418 | 6.66112 | 38305 ft | 448 kts | 44° |
| 2026-05-01 12:40 | 46.44837 | 6.72484 | 38298 ft | 447 kts | 44° |
| 2026-05-01 12:40 | 46.49245 | 6.78853 | 38305 ft | 447 kts | 45° |
| 2026-05-01 12:41 | 46.53645 | 6.85230 | 38304 ft | 446 kts | 45° |
| 2026-05-01 12:41 | 46.57793 | 6.91852 | 38312 ft | 446 kts | 51° |
| 2026-05-01 12:42 | 46.61669 | 6.98901 | 38306 ft | 446 kts | 51° |
| 2026-05-01 12:42 | 46.65547 | 7.05941 | 38307 ft | 445 kts | 51° |
| 2026-05-01 12:43 | 46.69421 | 7.12952 | 38310 ft | 443 kts | 51° |
| 2026-05-01 12:43 | 46.73286 | 7.19953 | 38306 ft | 443 kts | 51° |
| 2026-05-01 12:44 | 46.77138 | 7.26952 | 38287 ft | 442 kts | 51° |
| 2026-05-01 12:45 | 46.84799 | 7.40922 | 38281 ft | 442 kts | 51° |
| 2026-05-01 12:45 | 46.87813 | 7.46446 | 38284 ft | 441 kts | 51° |
| 2026-05-01 12:46 | 46.91467 | 7.53163 | 38283 ft | 441 kts | 51° |
| 2026-05-01 12:46 | 46.95279 | 7.60190 | 38285 ft | 441 kts | 51° |
| 2026-05-01 12:47 | 46.99091 | 7.67235 | 38286 ft | 441 kts | 51° |
| 2026-05-01 12:47 | 47.02891 | 7.74274 | 38289 ft | 441 kts | 51° |
| 2026-05-01 12:48 | 47.06694 | 7.81334 | 38290 ft | 441 kts | 51° |
| 2026-05-01 12:48 | 47.10263 | 7.87977 | 38294 ft | 440 kts | 51° |
| 2026-05-01 12:49 | 47.13992 | 7.95120 | 38308 ft | 441 kts | 56° |
| 2026-05-01 12:49 | 47.17265 | 8.02738 | 38304 ft | 441 kts | 58° |
| 2026-05-01 12:50 | 47.19842 | 8.08837 | 38312 ft | 440 kts | 58° |
| 2026-05-01 12:50 | 47.23083 | 8.16489 | 38321 ft | 440 kts | 58° |
| 2026-05-01 12:51 | 47.26321 | 8.24125 | 38323 ft | 439 kts | 58° |
| 2026-05-01 12:52 | 47.30384 | 8.36223 | 38333 ft | 441 kts | 72° |
| 2026-05-01 12:52 | 47.32332 | 8.49479 | 38338 ft | 442 kts | 79° |
| 2026-05-01 12:53 | 47.33992 | 8.62827 | 38346 ft | 441 kts | 79° |
| 2026-05-01 12:54 | 47.35133 | 8.71714 | 38351 ft | 441 kts | 78° |
| 2026-05-01 12:54 | 47.36828 | 8.84969 | 38351 ft | 440 kts | 78° |
| 2026-05-01 12:55 | 47.38510 | 8.98275 | 38348 ft | 439 kts | 78° |
| 2026-05-01 12:56 | 47.39620 | 9.07154 | 38344 ft | 439 kts | 78° |
| 2026-05-01 12:56 | 47.40717 | 9.16018 | 38344 ft | 439 kts | 79° |
| 2026-05-01 12:57 | 47.41281 | 9.24992 | 38354 ft | 441 kts | 89° |
| 2026-05-01 12:57 | 47.41114 | 9.38578 | 38362 ft | 441 kts | 90° |
| 2026-05-01 12:58 | 47.41010 | 9.47626 | 38365 ft | 441 kts | 89° |
| 2026-05-01 12:59 | 47.40870 | 9.61139 | 38373 ft | 441 kts | 89° |
| 2026-05-01 12:59 | 47.40683 | 9.74692 | 38373 ft | 440 kts | 90° |
| 2026-05-01 13:00 | 47.40430 | 9.88226 | 38370 ft | 439 kts | 90° |
| 2026-05-01 13:01 | 47.40167 | 10.01763 | 38372 ft | 439 kts | 90° |
| 2026-05-01 13:02 | 47.39890 | 10.15263 | 38366 ft | 438 kts | 90° |
| 2026-05-01 13:07 | 47.37404 | 11.13377 | 38398 ft | 433 kts | 90° |
| 2026-05-01 13:08 | 47.37137 | 11.22222 | 38398 ft | 434 kts | 90° |
| 2026-05-01 13:08 | 47.36860 | 11.31109 | 38405 ft | 433 kts | 90° |
| 2026-05-01 13:09 | 47.36580 | 11.39974 | 38410 ft | 433 kts | 90° |
| 2026-05-01 13:09 | 47.36292 | 11.48847 | 38418 ft | 433 kts | 90° |
| 2026-05-01 13:10 | 47.36002 | 11.57659 | 38434 ft | 428 kts | 90° |
| 2026-05-01 13:10 | 47.35704 | 11.66471 | 38455 ft | 431 kts | 90° |
| 2026-05-01 13:11 | 47.35396 | 11.75322 | 38459 ft | 432 kts | 90° |
| 2026-05-01 13:11 | 47.35086 | 11.84154 | 38470 ft | 431 kts | 89° |
| 2026-05-01 13:12 | 47.35626 | 11.92866 | 38489 ft | 425 kts | 73° |
| 2026-05-01 13:12 | 47.37761 | 12.00900 | 38493 ft | 419 kts | 58° |
| 2026-05-01 13:13 | 47.40639 | 12.08316 | 38485 ft | 419 kts | 58° |
| 2026-05-01 13:13 | 47.43496 | 12.15807 | 38493 ft | 419 kts | 59° |
| 2026-05-01 13:14 | 47.46305 | 12.23359 | 38494 ft | 419 kts | 59° |
| 2026-05-01 13:14 | 47.49098 | 12.30952 | 38499 ft | 419 kts | 59° |
| 2026-05-01 13:15 | 47.51869 | 12.38513 | 38499 ft | 418 kts | 59° |
| 2026-05-01 13:15 | 47.54450 | 12.45577 | 38504 ft | 418 kts | 59° |
| 2026-05-01 13:16 | 47.57213 | 12.53152 | 38500 ft | 418 kts | 59° |
| 2026-05-01 13:16 | 47.59971 | 12.60723 | 38522 ft | 416 kts | 59° |
| 2026-05-01 13:17 | 47.65458 | 12.75849 | 38542 ft | 416 kts | 60° |
| 2026-05-01 13:18 | 47.69090 | 12.85921 | 38555 ft | 416 kts | 60° |
| 2026-05-01 13:18 | 47.72261 | 12.94746 | 38563 ft | 415 kts | 60° |
| 2026-05-01 13:19 | 47.74535 | 13.01092 | 38571 ft | 415 kts | 60° |
| 2026-05-01 13:20 | 47.78594 | 13.12456 | 38624 ft | 413 kts | 60° |
| 2026-05-01 13:20 | 47.79906 | 13.16144 | 39076 ft | 406 kts | 60° |
| 2026-05-01 13:20 | 47.81239 | 13.19895 | 39246 ft | 405 kts | 60° |
| 2026-05-01 13:21 | 47.83906 | 13.27405 | 38921 ft | 415 kts | 60° |
| 2026-05-01 13:21 | 47.85235 | 13.31154 | 38634 ft | 414 kts | 60° |
| 2026-05-01 13:21 | 47.86590 | 13.34988 | 38378 ft | 412 kts | 60° |
| 2026-05-01 13:21 | 47.87901 | 13.38700 | 38351 ft | 410 kts | 60° |
| 2026-05-01 13:22 | 47.90374 | 13.46433 | 38355 ft | 416 kts | 68° |
| 2026-05-01 13:22 | 47.91706 | 13.54843 | 38343 ft | 420 kts | 81° |
| 2026-05-01 13:23 | 47.91795 | 13.63597 | 38348 ft | 424 kts | 88° |
| 2026-05-01 13:23 | 47.91664 | 13.72373 | 38353 ft | 423 kts | 88° |
| 2026-05-01 13:24 | 47.91591 | 13.81130 | 38349 ft | 422 kts | 87° |
| 2026-05-01 13:25 | 47.91517 | 13.94233 | 38348 ft | 421 kts | 87° |
| 2026-05-01 13:25 | 47.91462 | 14.02960 | 38338 ft | 420 kts | 87° |
| 2026-05-01 13:26 | 47.91398 | 14.11604 | 38345 ft | 420 kts | 87° |
| 2026-05-01 13:26 | 47.91324 | 14.20275 | 38231 ft | 417 kts | 86° |
| 2026-05-01 13:26 | 47.91285 | 14.24597 | 37751 ft | 416 kts | 86° |
| 2026-05-01 13:27 | 47.91244 | 14.28910 | 37138 ft | 416 kts | 86° |
| 2026-05-01 13:27 | 47.91201 | 14.33227 | 36457 ft | 416 kts | 86° |
| 2026-05-01 13:27 | 47.91110 | 14.41846 | 35176 ft | 416 kts | 86° |
| 2026-05-01 13:28 | 47.91009 | 14.50463 | 33741 ft | 416 kts | 86° |
| 2026-05-01 13:28 | 47.90956 | 14.54785 | 32943 ft | 418 kts | 86° |
| 2026-05-01 13:29 | 47.90845 | 14.63499 | 31289 ft | 422 kts | 86° |
| 2026-05-01 13:29 | 47.90728 | 14.72154 | 29350 ft | 415 kts | 86° |
| 2026-05-01 13:30 | 47.90482 | 14.88842 | 25943 ft | 390 kts | 86° |
| 2026-05-01 13:31 | 47.90369 | 14.96825 | 24389 ft | 381 kts | 87° |
| 2026-05-01 13:31 | 47.90181 | 15.08440 | 21749 ft | 367 kts | 87° |
| 2026-05-01 13:32 | 47.90057 | 15.15980 | 20095 ft | 360 kts | 88° |
| 2026-05-01 13:33 | 47.89860 | 15.27029 | 17694 ft | 349 kts | 88° |
| 2026-05-01 13:33 | 47.89722 | 15.34104 | 16654 ft | 327 kts | 88° |
| 2026-05-01 13:34 | 47.89586 | 15.40447 | 16324 ft | 290 kts | 87° |
| 2026-05-01 13:34 | 47.89466 | 15.46090 | 16029 ft | 255 kts | 86° |
| 2026-05-01 13:35 | 47.88975 | 15.51250 | 15172 ft | 252 kts | 98° |
| 2026-05-01 13:35 | 47.88546 | 15.53782 | 14672 ft | 253 kts | 98° |
| 2026-05-01 13:35 | 47.87682 | 15.58810 | 13680 ft | 249 kts | 98° |
| 2026-05-01 13:36 | 47.87260 | 15.61289 | 13247 ft | 245 kts | 98° |
| 2026-05-01 13:36 | 47.86846 | 15.63743 | 12755 ft | 244 kts | 99° |
| 2026-05-01 13:36 | 47.86034 | 15.68629 | 11746 ft | 239 kts | 99° |
| 2026-05-01 13:37 | 47.85632 | 15.71030 | 11234 ft | 239 kts | 99° |
| 2026-05-01 13:37 | 47.85229 | 15.73427 | 10797 ft | 237 kts | 99° |
| 2026-05-01 13:37 | 47.84829 | 15.75802 | 10356 ft | 236 kts | 99° |
| 2026-05-01 13:37 | 47.84432 | 15.78164 | 9877 ft | 235 kts | 100° |
| 2026-05-01 13:38 | 47.83637 | 15.82906 | 9061 ft | 236 kts | 101° |
| 2026-05-01 13:38 | 47.83245 | 15.85234 | 8769 ft | 234 kts | 100° |
| 2026-05-01 13:38 | 47.82848 | 15.87578 | 8450 ft | 235 kts | 101° |
| 2026-05-01 13:39 | 47.82448 | 15.89935 | 8171 ft | 233 kts | 101° |
| 2026-05-01 13:39 | 47.82051 | 15.92246 | 8022 ft | 229 kts | 101° |
| 2026-05-01 13:39 | 47.81649 | 15.94582 | 8026 ft | 236 kts | 101° |
| 2026-05-01 13:39 | 47.81243 | 15.96935 | 8018 ft | 232 kts | 101° |
| 2026-05-01 13:40 | 47.80844 | 15.99262 | 8012 ft | 233 kts | 101° |
| 2026-05-01 13:40 | 47.80442 | 16.01590 | 8019 ft | 232 kts | 101° |
| 2026-05-01 13:40 | 47.80042 | 16.03929 | 8019 ft | 235 kts | 101° |
| 2026-05-01 13:40 | 47.79639 | 16.06261 | 8018 ft | 233 kts | 102° |
| 2026-05-01 13:41 | 47.79232 | 16.08616 | 8019 ft | 234 kts | 102° |
| 2026-05-01 13:41 | 47.78826 | 16.10960 | 8021 ft | 234 kts | 102° |
| 2026-05-01 13:41 | 47.78421 | 16.13299 | 8017 ft | 233 kts | 101° |
| 2026-05-01 13:41 | 47.78019 | 16.15636 | 8013 ft | 234 kts | 102° |
| 2026-05-01 13:42 | 47.77615 | 16.17982 | 8015 ft | 234 kts | 102° |
| 2026-05-01 13:42 | 47.77208 | 16.20335 | 8017 ft | 235 kts | 102° |
| 2026-05-01 13:42 | 47.76993 | 16.22701 | 8017 ft | 228 kts | 80° |
| 2026-05-01 13:42 | 47.77536 | 16.24847 | 8019 ft | 223 kts | 51° |
| 2026-05-01 13:43 | 47.78600 | 16.26555 | 8016 ft | 224 kts | 45° |
| 2026-05-01 13:43 | 47.79694 | 16.28183 | 7946 ft | 221 kts | 45° |
| 2026-05-01 13:43 | 47.80771 | 16.29827 | 7647 ft | 223 kts | 46° |
| 2026-05-01 13:43 | 47.81841 | 16.31502 | 7373 ft | 222 kts | 47° |
| 2026-05-01 13:44 | 47.82898 | 16.33191 | 7069 ft | 223 kts | 47° |
| 2026-05-01 13:44 | 47.83953 | 16.34891 | 6767 ft | 223 kts | 47° |
| 2026-05-01 13:44 | 47.85001 | 16.36582 | 6498 ft | 222 kts | 47° |
| 2026-05-01 13:44 | 47.86037 | 16.38254 | 6228 ft | 221 kts | 47° |
| 2026-05-01 13:45 | 47.87071 | 16.39922 | 6042 ft | 215 kts | 47° |
| 2026-05-01 13:45 | 47.88040 | 16.41637 | 6016 ft | 220 kts | 57° |
| 2026-05-01 13:45 | 47.88694 | 16.43734 | 6009 ft | 225 kts | 73° |
| 2026-05-01 13:45 | 47.89079 | 16.46012 | 6009 ft | 226 kts | 75° |
| 2026-05-01 13:46 | 47.89452 | 16.48280 | 6007 ft | 226 kts | 74° |
| 2026-05-01 13:46 | 47.89809 | 16.50549 | 6011 ft | 227 kts | 82° |
| 2026-05-01 13:46 | 47.89542 | 16.52873 | 6022 ft | 236 kts | 115° |
| 2026-05-01 13:46 | 47.88432 | 16.54679 | 6014 ft | 242 kts | 148° |
| 2026-05-01 13:47 | 47.86853 | 16.55535 | 6004 ft | 247 kts | 164° |
| 2026-05-01 13:47 | 47.85182 | 16.56139 | 6018 ft | 248 kts | 165° |
| 2026-05-01 13:47 | 47.83510 | 16.56728 | 6008 ft | 245 kts | 164° |
| 2026-05-01 13:47 | 47.81856 | 16.57358 | 6007 ft | 246 kts | 162° |
| 2026-05-01 13:48 | 47.80205 | 16.58025 | 6009 ft | 245 kts | 162° |
| 2026-05-01 13:48 | 47.78557 | 16.58717 | 6010 ft | 246 kts | 161° |
| 2026-05-01 13:48 | 47.76913 | 16.59417 | 6008 ft | 245 kts | 161° |
| 2026-05-01 13:48 | 47.75276 | 16.60117 | 6013 ft | 246 kts | 161° |
| 2026-05-01 13:49 | 47.73632 | 16.60813 | 6009 ft | 245 kts | 161° |
| 2026-05-01 13:49 | 47.71988 | 16.61507 | 6011 ft | 246 kts | 161° |
| 2026-05-01 13:49 | 47.70329 | 16.62200 | 6008 ft | 248 kts | 161° |
| 2026-05-01 13:49 | 47.68705 | 16.62978 | 6010 ft | 244 kts | 148° |
| 2026-05-01 13:50 | 47.67494 | 16.64627 | 6021 ft | 236 kts | 115° |
| 2026-05-01 13:50 | 47.67087 | 16.66916 | 6006 ft | 227 kts | 82° |
| 2026-05-01 13:50 | 47.67455 | 16.69140 | 5844 ft | 222 kts | 68° |
| 2026-05-01 13:50 | 47.67952 | 16.71312 | 5531 ft | 222 kts | 68° |
| 2026-05-01 13:51 | 47.68621 | 16.73330 | 5241 ft | 216 kts | 46° |
| 2026-05-01 13:51 | 47.69805 | 16.74589 | 4654 ft | 210 kts | 18° |
| 2026-05-01 13:51 | 47.71235 | 16.74735 | 4163 ft | 204 kts | 348° |
| 2026-05-01 13:51 | 47.72580 | 16.74122 | 4020 ft | 204 kts | 344° |
| 2026-05-01 13:52 | 47.73873 | 16.73524 | 4011 ft | 188 kts | 345° |
| 2026-05-01 13:52 | 47.75111 | 16.72988 | 4015 ft | 187 kts | 347° |
| 2026-05-01 13:52 | 47.76379 | 16.72467 | 4008 ft | 189 kts | 348° |
| 2026-05-01 13:52 | 47.77642 | 16.71961 | 4004 ft | 187 kts | 348° |
| 2026-05-01 13:53 | 47.78856 | 16.71479 | 3996 ft | 172 kts | 348° |
| 2026-05-01 13:53 | 47.80954 | 16.70643 | 3667 ft | 144 kts | 348° |
| 2026-05-01 13:53 | 47.81905 | 16.70264 | 3399 ft | 140 kts | 348° |
| 2026-05-01 13:54 | 47.82844 | 16.69888 | 3079 ft | 139 kts | 349° |
| 2026-05-01 13:54 | 47.83754 | 16.69536 | 2993 ft | 132 kts | 349° |
| 2026-05-01 13:54 | 47.84694 | 16.69166 | 3002 ft | 146 kts | 348° |
| 2026-05-01 13:54 | 47.85651 | 16.68778 | 2998 ft | 142 kts | 348° |
| 2026-05-01 13:55 | 47.86614 | 16.68394 | 3016 ft | 143 kts | 348° |
| 2026-05-01 13:55 | 47.87548 | 16.68020 | 3013 ft | 140 kts | 348° |
| 2026-05-01 13:55 | 47.88517 | 16.67627 | 3003 ft | 143 kts | 348° |
| 2026-05-01 13:55 | 47.89464 | 16.67239 | 3026 ft | 141 kts | 349° |
| 2026-05-01 13:56 | 47.90425 | 16.66840 | 3007 ft | 144 kts | 348° |
| 2026-05-01 13:56 | 47.91397 | 16.66458 | 3010 ft | 145 kts | 348° |
| 2026-05-01 13:56 | 47.92368 | 16.66081 | 2983 ft | 139 kts | 348° |
| 2026-05-01 13:56 | 47.93311 | 16.65699 | 3000 ft | 141 kts | 348° |
| 2026-05-01 13:57 | 47.94234 | 16.65314 | 3008 ft | 139 kts | 348° |
| 2026-05-01 13:57 | 47.94867 | 16.65043 | 2994 ft | 141 kts | 348° |
| 2026-05-01 13:57 | 47.96115 | 16.64512 | 2989 ft | 140 kts | 348° |
| 2026-05-01 13:57 | 47.97073 | 16.64122 | 2943 ft | 146 kts | 348° |
| 2026-05-01 13:58 | 47.98047 | 16.63708 | 2838 ft | 145 kts | 347° |
| 2026-05-01 13:58 | 47.99025 | 16.63295 | 2640 ft | 147 kts | 347° |
| 2026-05-01 13:58 | 47.99990 | 16.62886 | 2446 ft | 141 kts | 348° |
| 2026-05-01 13:58 | 48.00906 | 16.62501 | 2253 ft | 133 kts | 347° |
| 2026-05-01 13:59 | 48.01825 | 16.62116 | 2083 ft | 143 kts | 347° |
| 2026-05-01 13:59 | 48.02786 | 16.61701 | 1868 ft | 141 kts | 347° |
| 2026-05-01 13:59 | 48.03713 | 16.61303 | 1686 ft | 138 kts | 347° |
| 2026-05-01 13:59 | 48.04632 | 16.60915 | 1482 ft | 137 kts | 346° |
| 2026-05-01 14:00 | 48.05556 | 16.60463 | 1342 ft | 140 kts | 344° |
| 2026-05-01 14:00 | 48.06495 | 16.60056 | 1118 ft | 138 kts | 347° |
| 2026-05-01 14:00 | 48.07415 | 16.59700 | 832 ft | 134 kts | 348° |
| 2026-05-01 14:00 | 48.08283 | 16.59352 | 722 ft | 131 kts | 346° |
| 2026-05-01 14:01 | 48.09186 | 16.58989 | 618 ft | 137 kts | 346° |
| 2026-05-01 14:01 | 48.09966 | 16.58662 | 601 ft | 79 kts | 342° |
| 2026-05-01 14:01 | 48.10205 | 16.58560 | 597 ft | 10 kts | 5° |
| 2026-05-01 14:01 | 48.10289 | 16.58539 | 597 ft | 25 kts | 349° |
| 2026-05-01 14:02 | 48.10463 | 16.58460 | 595 ft | 27 kts | 345° |
| 2026-05-01 14:02 | 48.10638 | 16.58378 | 601 ft | 25 kts | 343° |
| 2026-05-01 14:02 | 48.10760 | 16.58248 | 603 ft | 22 kts | 311° |
| 2026-05-01 14:02 | 48.10850 | 16.58098 | 603 ft | 0 kts | 311° |
| 2026-05-01 14:03 | 48.10853 | 16.58093 | 603 ft | 3 kts | 311° |
| 2026-05-01 14:03 | 48.10878 | 16.58052 | 603 ft | 8 kts | 311° |
| 2026-05-01 14:04 | 48.10922 | 16.57978 | 603 ft | 11 kts | 311° |
| 2026-05-01 14:04 | 48.10979 | 16.57898 | 611 ft | 12 kts | 318° |
| 2026-05-01 14:04 | 48.11039 | 16.57790 | 611 ft | 15 kts | 295° |
| 2026-05-01 14:04 | 48.11072 | 16.57686 | 603 ft | 18 kts | 296° |
| 2026-05-01 14:05 | 48.11154 | 16.57448 | 603 ft | 21 kts | 295° |
| 2026-05-01 14:05 | 48.11217 | 16.57247 | 618 ft | 22 kts | 296° |
| 2026-05-01 14:05 | 48.11288 | 16.57033 | 618 ft | 24 kts | 296° |
| 2026-05-01 14:05 | 48.11367 | 16.56797 | 602 ft | 28 kts | 297° |
| 2026-05-01 14:06 | 48.11440 | 16.56572 | 599 ft | 12 kts | 297° |
| 2026-05-01 14:06 | 48.11483 | 16.56441 | 598 ft | 16 kts | 291° |
| 2026-05-01 14:06 | 48.11524 | 16.56376 | 598 ft | 10 kts | 359° |
| 2026-05-01 14:06 | 48.11589 | 16.56428 | 598 ft | 12 kts | 48° |
| 2026-05-01 14:07 | 48.11652 | 16.56521 | 599 ft | 13 kts | 25° |
| 2026-05-01 14:07 | 48.11757 | 16.56624 | 597 ft | 14 kts | 28° |
| 2026-05-01 14:07 | 48.11768 | 16.56633 | 597 ft | 0 kts | 29° |
| 2026-05-01 14:09 | 48.11883 | 16.56828 | 599 ft | 0 kts | 201° |